createdAt,value
2022-10-26T00:01:10.092Z,153.60
2022-10-26T00:03:38.804Z,157.23
2022-10-26T00:06:08.641Z,160.00
2022-10-26T00:08:38.183Z,179.17
2022-10-26T00:11:07.455Z,169.23
2022-10-26T00:13:36.596Z,151.47
2022-10-26T00:16:09.884Z,168.70
2022-10-26T00:18:37.855Z,226.63
2022-10-26T00:21:06.012Z,169.57
2022-10-26T00:23:34.433Z,179.83
2022-10-26T00:26:04.144Z,181.93
2022-10-26T00:28:32.418Z,153.57
2022-10-26T00:31:02.449Z,186.63
2022-10-26T00:33:30.776Z,167.40
2022-10-26T00:35:58.962Z,156.27
2022-10-26T00:38:26.787Z,154.33
2022-10-26T00:40:54.661Z,172.10
2022-10-26T00:43:40.115Z,153.73
2022-10-26T00:46:12.942Z,162.03
2022-10-26T00:48:45.448Z,150.63
2022-10-26T00:51:21.634Z,177.37
2022-10-26T00:53:50.653Z,176.00
2022-10-26T00:56:19.421Z,177.97
2022-10-26T00:58:49.392Z,166.37
2022-10-26T01:01:17.388Z,174.80
2022-10-26T01:03:46.602Z,153.97
2022-10-26T01:06:15.769Z,159.80
2022-10-26T01:08:44.988Z,154.40
2022-10-26T01:11:13.667Z,167.17
2022-10-26T01:13:44.683Z,166.10
2022-10-26T01:16:39.604Z,154.03
2022-10-26T01:19:36.846Z,168.10
2022-10-26T01:22:09.132Z,159.87
2022-10-26T01:24:53.259Z,173.23
2022-10-26T01:27:29.401Z,152.40
2022-10-26T01:30:26.080Z,155.80
2022-10-26T01:33:11.932Z,149.63
2022-10-26T01:35:49.332Z,159.00
2022-10-26T01:38:25.095Z,151.73
2022-10-26T01:41:00.921Z,160.70
2022-10-26T01:43:33.014Z,156.60
2022-10-26T01:46:04.517Z,158.90
2022-10-26T01:48:34.478Z,153.63
2022-10-26T01:51:04.776Z,152.43
2022-10-26T01:53:32.578Z,135.73
2022-10-26T01:56:00.770Z,142.20
2022-10-26T01:58:56.974Z,145.80
2022-10-26T02:01:45.901Z,157.77
2022-10-26T02:04:31.136Z,163.97
2022-10-26T02:07:04.312Z,144.33
2022-10-26T02:09:40.955Z,146.73
2022-10-26T02:12:17.484Z,124.47
2022-10-26T02:14:50.659Z,135.60
2022-10-26T02:17:27.695Z,119.90
2022-10-26T02:20:02.000Z,120.03
2022-10-26T02:22:34.559Z,130.37
2022-10-26T02:25:07.447Z,128.63
2022-10-26T02:27:42.421Z,116.03
2022-10-26T02:30:11.800Z,130.43
2022-10-26T02:32:46.056Z,124.60
2022-10-26T02:35:16.671Z,112.00
2022-10-26T02:37:48.537Z,117.57
2022-10-26T02:40:23.035Z,126.03
2022-10-26T02:42:53.734Z,122.50
2022-10-26T02:45:26.231Z,116.63
2022-10-26T02:47:56.632Z,115.80
2022-10-26T02:50:30.699Z,125.23
2022-10-26T02:53:08.713Z,131.13
2022-10-26T02:55:41.609Z,123.63
2022-10-26T02:58:16.635Z,123.40
2022-10-26T03:00:45.537Z,128.23
2022-10-26T03:03:15.687Z,125.83
2022-10-26T03:05:44.658Z,120.53
2022-10-26T03:08:12.463Z,142.07
2022-10-26T03:10:43.112Z,117.27
2022-10-26T03:13:12.002Z,115.80
2022-10-26T03:15:40.177Z,117.07
2022-10-26T03:18:08.193Z,112.33
2022-10-26T03:20:37.501Z,123.20
2022-10-26T03:23:05.280Z,116.53
2022-10-26T03:25:33.056Z,123.33
2022-10-26T03:28:02.308Z,120.90
2022-10-26T03:30:31.756Z,117.43
2022-10-26T03:32:59.943Z,134.73
2022-10-26T03:35:27.679Z,131.73
2022-10-26T03:37:56.790Z,124.83
2022-10-26T03:40:24.788Z,121.57
2022-10-26T03:42:52.809Z,128.53
2022-10-26T03:45:20.728Z,116.77
2022-10-26T03:47:50.101Z,143.13
2022-10-26T03:50:21.134Z,136.80
2022-10-26T03:52:50.580Z,131.77
2022-10-26T03:55:20.400Z,133.57
2022-10-26T03:57:48.319Z,132.03
2022-10-26T04:00:17.946Z,122.10
2022-10-26T04:02:48.825Z,130.83
2022-10-26T04:05:17.019Z,122.00
2022-10-26T04:07:44.869Z,115.87
2022-10-26T04:10:12.664Z,114.57
2022-10-26T04:12:41.793Z,123.20
2022-10-26T04:15:11.243Z,127.23
2022-10-26T04:17:39.154Z,128.13
2022-10-26T04:20:08.148Z,130.47
2022-10-26T04:22:36.520Z,125.77
2022-10-26T04:25:04.569Z,128.30
2022-10-26T04:27:32.537Z,144.97
2022-10-26T04:30:01.678Z,132.07
2022-10-26T04:32:29.481Z,142.90
2022-10-26T04:34:57.236Z,130.10
2022-10-26T04:37:24.964Z,126.90
2022-10-26T04:39:52.792Z,131.23
2022-10-26T04:42:20.601Z,129.10
2022-10-26T04:44:48.363Z,121.77
2022-10-26T04:47:17.518Z,138.37
2022-10-26T04:49:45.254Z,117.03
2022-10-26T04:52:13.007Z,135.27
2022-10-26T04:54:40.751Z,138.93
2022-10-26T04:57:08.484Z,119.03
2022-10-26T04:59:36.259Z,119.77
2022-10-26T05:02:04.197Z,111.27
2022-10-26T05:04:33.387Z,118.43
2022-10-26T05:07:01.215Z,126.67
2022-10-26T05:09:28.980Z,138.77
2022-10-26T05:11:56.733Z,123.40
2022-10-26T05:14:24.503Z,111.50
2022-10-26T05:16:55.328Z,132.27
2022-10-26T05:19:23.044Z,138.63
2022-10-26T05:21:53.340Z,121.77
2022-10-26T05:24:21.200Z,114.13
2022-10-26T05:26:49.181Z,131.63
2022-10-26T05:29:16.926Z,121.60
2022-10-26T05:31:44.700Z,144.70
2022-10-26T05:34:12.469Z,139.27
2022-10-26T05:36:40.276Z,129.63
2022-10-26T05:39:09.524Z,129.03
2022-10-26T05:41:37.340Z,132.70
2022-10-26T05:44:05.838Z,127.20
2022-10-26T05:46:33.623Z,127.23
2022-10-26T05:49:01.494Z,126.73
2022-10-26T05:51:29.349Z,130.17
2022-10-26T05:53:57.588Z,127.10
2022-10-26T05:56:35.721Z,137.97
2022-10-26T05:59:04.497Z,131.97
2022-10-26T06:01:45.210Z,130.73
2022-10-26T06:04:27.238Z,145.47
2022-10-26T06:06:56.007Z,155.43
2022-10-26T06:09:24.730Z,178.87
2022-10-26T06:11:54.677Z,157.97
2022-10-26T06:14:23.090Z,144.63
2022-10-26T06:17:03.414Z,161.23
2022-10-26T06:19:46.620Z,162.57
2022-10-26T06:22:28.092Z,181.80
2022-10-26T06:25:09.267Z,149.03
2022-10-26T06:27:45.114Z,160.57
2022-10-26T06:30:13.195Z,157.57
2022-10-26T06:32:44.625Z,173.10
2022-10-26T06:35:22.594Z,170.97
2022-10-26T06:37:52.039Z,171.00
2022-10-26T06:40:20.583Z,172.70
2022-10-26T06:42:50.513Z,156.57
2022-10-26T06:45:19.071Z,135.57
2022-10-26T06:47:54.030Z,140.70
2022-10-26T06:50:33.833Z,143.93
2022-10-26T06:53:12.315Z,157.43
2022-10-26T06:55:43.871Z,146.47
2022-10-26T06:58:16.208Z,131.50
2022-10-26T07:00:45.717Z,151.23
2022-10-26T07:03:13.525Z,148.73
2022-10-26T07:05:41.469Z,126.73
2022-10-26T07:08:09.357Z,141.53
2022-10-26T07:10:39.035Z,139.67
2022-10-26T07:13:07.208Z,165.10
2022-10-26T07:15:37.926Z,171.03
2022-10-26T07:18:07.083Z,166.07
2022-10-26T07:20:38.770Z,140.87
2022-10-26T07:23:07.965Z,151.97
2022-10-26T07:25:38.923Z,177.50
2022-10-26T07:28:07.616Z,171.83
2022-10-26T07:30:37.851Z,185.80
2022-10-26T07:33:09.917Z,194.47
2022-10-26T07:35:38.315Z,208.23
2022-10-26T07:38:06.988Z,163.23
2022-10-26T07:40:35.009Z,191.07
2022-10-26T07:43:02.831Z,163.93
2022-10-26T07:45:31.469Z,188.37
2022-10-26T07:48:01.231Z,184.37
2022-10-26T07:50:29.184Z,200.43
2022-10-26T07:52:57.016Z,197.20
2022-10-26T07:55:24.783Z,198.27
2022-10-26T07:57:54.912Z,184.03
2022-10-26T08:00:23.532Z,144.23
2022-10-26T08:02:51.912Z,165.73
2022-10-26T08:05:21.286Z,227.73
2022-10-26T08:07:49.671Z,218.53
2022-10-26T08:10:17.901Z,272.33
2022-10-26T08:12:45.713Z,255.60
2022-10-26T08:15:13.518Z,268.13
2022-10-26T08:17:41.360Z,134.83
2022-10-26T08:20:10.176Z,267.70
2022-10-26T08:22:39.288Z,213.10
2022-10-26T08:25:07.447Z,155.80
2022-10-26T08:27:35.173Z,133.90
2022-10-26T08:30:02.990Z,633.47
2022-10-26T08:32:30.764Z,968.63
2022-10-26T08:34:58.490Z,1064.17
2022-10-26T08:37:27.640Z,995.77
2022-10-26T08:39:58.461Z,969.00
2022-10-26T08:42:34.098Z,670.33
2022-10-26T08:45:06.397Z,2266.67
2022-10-26T08:47:43.155Z,2266.67
2022-10-26T08:50:15.155Z,2266.67
2022-10-26T08:52:47.440Z,2266.67
2022-10-26T08:55:19.452Z,2266.67
2022-10-26T08:57:51.150Z,1764.47
2022-10-26T09:00:30.419Z,1735.03
2022-10-26T09:02:58.255Z,1913.83
2022-10-26T09:05:36.735Z,1853.73
2022-10-26T09:08:13.277Z,2044.63
2022-10-26T09:10:54.824Z,2031.93
2022-10-26T09:13:29.242Z,1950.53
2022-10-26T09:16:03.606Z,1654.50
2022-10-26T09:18:43.164Z,2266.67
2022-10-26T09:21:25.477Z,2266.67
2022-10-26T09:24:00.376Z,997.87
2022-10-26T09:26:34.703Z,950.37
2022-10-26T09:29:06.146Z,2266.67
2022-10-26T09:31:43.362Z,2266.67
2022-10-26T09:34:23.673Z,2266.67
2022-10-26T09:36:56.075Z,2266.67
2022-10-26T09:39:35.007Z,2266.67
2022-10-26T09:42:13.275Z,2266.67
2022-10-26T09:44:48.811Z,2266.67
2022-10-26T09:47:28.204Z,2266.67
2022-10-26T09:49:59.762Z,2266.67
2022-10-26T09:52:27.665Z,2266.67
2022-10-26T09:54:55.546Z,2266.67
2022-10-26T09:57:25.612Z,2266.67
2022-10-26T09:59:55.679Z,2266.67
2022-10-26T10:02:43.881Z,2266.67
2022-10-26T10:05:49.813Z,2266.67
2022-10-26T10:08:19.374Z,1785.53
2022-10-26T10:10:58.539Z,1317.57
2022-10-26T10:13:30.079Z,2014.47
2022-10-26T10:16:04.463Z,2266.67
2022-10-26T10:18:34.054Z,2266.67
2022-10-26T10:21:02.377Z,2266.67
2022-10-26T10:23:32.917Z,1092.87
2022-10-26T10:26:08.009Z,2266.67
2022-10-26T10:28:38.038Z,2266.67
2022-10-26T10:31:07.762Z,2266.67
2022-10-26T10:33:38.059Z,2266.67
2022-10-26T10:36:11.124Z,2266.67
2022-10-26T10:38:42.788Z,2266.67
2022-10-26T10:41:21.257Z,2266.67
2022-10-26T10:43:54.607Z,2266.67
2022-10-26T10:46:26.002Z,2266.67
2022-10-26T10:49:04.522Z,2266.67
2022-10-26T10:51:39.440Z,2266.67
2022-10-26T10:54:19.256Z,2266.67
2022-10-26T10:56:50.755Z,2266.67
2022-10-26T10:59:54.057Z,2266.67
2022-10-26T11:03:16.758Z,2266.67
2022-10-26T11:06:07.511Z,2266.67
2022-10-26T11:08:42.666Z,2266.67
2022-10-26T11:11:15.035Z,2266.67
2022-10-26T11:13:52.800Z,2266.67
2022-10-26T11:16:27.116Z,2266.67
2022-10-26T11:19:00.148Z,2266.67
2022-10-26T11:21:30.574Z,2266.67
2022-10-26T11:24:11.050Z,2266.67
2022-10-26T11:26:46.149Z,2266.67
2022-10-26T11:29:39.349Z,2266.67
2022-10-26T11:32:16.366Z,2266.67
2022-10-26T11:34:52.950Z,2266.67
2022-10-26T11:37:25.874Z,2266.67
2022-10-26T11:40:03.881Z,2266.67
2022-10-26T11:42:39.493Z,2266.67
2022-10-26T11:45:16.776Z,2266.67
2022-10-26T11:47:51.705Z,2266.67
2022-10-26T11:50:26.512Z,2266.67
2022-10-26T11:52:59.253Z,2266.67
2022-10-26T11:55:27.203Z,2266.67
2022-10-26T11:57:55.928Z,2266.67
2022-10-26T12:00:24.569Z,2266.67
2022-10-26T12:02:57.726Z,2266.67
2022-10-26T12:05:35.651Z,2266.67
2022-10-26T12:08:07.846Z,2266.67
2022-10-26T12:10:40.131Z,2266.67
2022-10-26T12:13:20.279Z,2266.67
2022-10-26T12:16:08.204Z,2266.67
2022-10-26T12:18:55.546Z,2266.67
2022-10-26T12:21:29.445Z,2266.67
2022-10-26T12:24:00.210Z,2266.67
2022-10-26T12:26:52.142Z,2266.67
2022-10-26T12:29:37.159Z,2266.67
2022-10-26T12:32:43.672Z,2266.67
2022-10-26T12:35:43.063Z,2266.67
2022-10-26T12:38:44.447Z,2266.67
2022-10-26T12:41:21.146Z,2266.67
2022-10-26T12:43:49.672Z,2266.67
2022-10-26T12:46:41.998Z,2266.67
2022-10-26T12:49:55.621Z,2266.67
2022-10-26T12:52:29.708Z,2266.67
2022-10-26T12:55:29.546Z,2266.67
2022-10-26T12:58:23.531Z,2266.67
2022-10-26T13:01:15.626Z,2266.67
2022-10-26T13:03:56.174Z,2266.67
2022-10-26T13:06:44.776Z,2266.67
2022-10-26T13:09:20.087Z,2266.67
2022-10-26T13:11:51.271Z,2266.67
2022-10-26T13:14:27.548Z,2266.67
2022-10-26T13:16:56.174Z,2266.67
2022-10-26T13:19:26.616Z,2266.67
2022-10-26T13:21:54.943Z,2266.67
2022-10-26T13:24:26.153Z,2266.67
2022-10-26T13:27:40.096Z,2266.67
2022-10-26T13:30:41.883Z,2266.67
2022-10-26T13:33:18.653Z,2266.67
2022-10-26T13:35:47.842Z,2266.67
2022-10-26T13:38:21.584Z,2266.67
2022-10-26T13:40:50.528Z,2266.67
2022-10-26T13:43:23.887Z,2266.67
2022-10-26T13:45:56.620Z,2266.67
2022-10-26T13:48:32.402Z,2266.67
2022-10-26T13:51:04.201Z,2266.67
2022-10-26T13:53:41.394Z,2266.67
2022-10-26T13:56:18.694Z,2266.67
2022-10-26T13:58:51.395Z,2266.67
2022-10-26T14:01:23.092Z,2266.67
2022-10-26T14:03:51.496Z,2266.67
2022-10-26T14:06:24.738Z,2266.67
2022-10-26T14:08:54.779Z,2266.67
2022-10-26T14:11:27.237Z,2266.67
2022-10-26T14:13:55.133Z,2266.67
2022-10-26T14:16:27.860Z,2266.67
2022-10-26T14:18:55.836Z,2266.67
2022-10-26T14:21:23.992Z,2266.67
2022-10-26T14:23:55.900Z,2266.67
2022-10-26T14:26:26.108Z,2266.67
2022-10-26T14:28:55.796Z,2266.67
2022-10-26T14:31:27.626Z,2266.67
2022-10-26T14:33:57.294Z,2266.67
2022-10-26T14:36:30.257Z,2266.67
2022-10-26T14:39:04.275Z,2266.67
2022-10-26T14:41:35.606Z,2266.67
2022-10-26T14:44:04.244Z,2266.67
2022-10-26T14:46:36.593Z,2266.67
2022-10-26T14:49:05.269Z,2266.67
2022-10-26T14:51:36.722Z,2266.67
2022-10-26T14:54:05.809Z,2266.67
2022-10-26T14:56:41.170Z,2266.67
2022-10-26T14:59:13.928Z,2266.67
2022-10-26T15:01:54.758Z,2266.67
2022-10-26T15:04:34.893Z,2266.67
2022-10-26T15:07:08.347Z,2266.67
2022-10-26T15:09:42.845Z,2266.67
2022-10-26T15:12:26.587Z,2266.67
2022-10-26T15:14:55.363Z,2266.67
2022-10-26T15:17:28.281Z,2266.67
2022-10-26T15:19:57.816Z,2266.67
2022-10-26T15:22:32.083Z,2266.67
2022-10-26T15:25:04.140Z,2266.67
2022-10-26T15:27:32.325Z,2266.67
2022-10-26T15:30:22.612Z,2266.67
2022-10-26T15:32:53.061Z,2266.67
2022-10-26T15:35:28.179Z,2266.67
2022-10-26T15:37:57.588Z,2266.67
2022-10-26T15:40:28.938Z,2266.67
2022-10-26T15:43:00.609Z,2266.67
2022-10-26T15:45:31.182Z,2266.67
2022-10-26T15:48:16.679Z,2266.67
2022-10-26T15:50:44.429Z,2266.67
2022-10-26T15:53:19.201Z,2266.67
2022-10-26T15:55:47.310Z,2266.67
2022-10-26T15:58:16.354Z,2266.67
2022-10-26T16:00:44.145Z,2266.67
2022-10-26T16:03:16.995Z,2266.67
2022-10-26T16:05:44.829Z,2266.67
2022-10-26T16:08:17.962Z,2266.67
2022-10-26T16:10:47.568Z,2266.67
2022-10-26T16:13:16.049Z,2266.67
2022-10-26T16:15:43.958Z,2266.67
2022-10-26T16:18:11.764Z,2266.67
2022-10-26T16:20:41.198Z,2266.67
2022-10-26T16:23:09.057Z,1810.43
2022-10-26T16:25:42.599Z,1778.23
2022-10-26T16:28:12.646Z,1884.17
2022-10-26T16:33:14.190Z,1384.07
2022-10-26T16:35:43.394Z,1847.00
2022-10-26T16:38:11.510Z,2088.47
2022-10-26T16:40:42.450Z,2266.67
2022-10-26T16:43:10.790Z,2266.67
2022-10-26T16:45:41.566Z,2266.67
2022-10-26T16:48:14.349Z,2266.67
2022-10-26T16:50:43.510Z,2266.67
2022-10-26T16:53:11.708Z,2063.10
2022-10-26T16:55:39.585Z,1728.43
2022-10-26T16:58:07.487Z,2266.67
2022-10-26T17:00:36.717Z,2266.67
2022-10-26T17:03:05.130Z,2266.67
2022-10-26T17:05:32.885Z,2266.67
2022-10-26T17:08:01.991Z,1704.97
2022-10-26T17:10:29.761Z,1910.70
2022-10-26T17:12:57.807Z,1596.77
2022-10-26T17:15:28.963Z,1831.10
2022-10-26T17:17:57.135Z,1779.50
2022-10-26T17:20:24.895Z,1872.27
2022-10-26T17:22:53.126Z,1363.67
2022-10-26T17:25:22.449Z,1472.97
2022-10-26T17:27:50.365Z,1046.70
2022-10-26T17:30:18.229Z,874.47
2022-10-26T17:32:45.987Z,766.20
2022-10-26T17:35:16.999Z,1148.00
2022-10-26T17:37:45.207Z,1433.47
2022-10-26T17:40:13.856Z,696.83
2022-10-26T17:42:44.011Z,602.87
2022-10-26T17:45:15.447Z,487.17
2022-10-26T17:47:44.808Z,456.57
2022-10-26T17:50:13.057Z,365.33
2022-10-26T17:52:42.621Z,338.40
2022-10-26T17:55:11.284Z,315.07
2022-10-26T17:57:39.561Z,288.50
2022-10-26T18:00:10.742Z,304.30
2022-10-26T18:02:41.725Z,278.00
2022-10-26T18:05:10.606Z,280.07
2022-10-26T18:07:38.343Z,261.77
2022-10-26T18:10:13.795Z,270.17
2022-10-26T18:12:53.954Z,332.23
2022-10-26T18:15:23.911Z,259.10
2022-10-26T18:17:56.779Z,277.50
2022-10-26T18:20:26.370Z,279.33
2022-10-26T18:22:54.212Z,274.97
2022-10-26T18:25:22.024Z,274.87
2022-10-26T18:27:49.891Z,259.07
2022-10-26T18:30:17.767Z,249.03
2022-10-26T18:32:49.524Z,287.00
2022-10-26T18:35:18.116Z,319.33
2022-10-26T18:37:46.141Z,309.70
2022-10-26T18:40:14.895Z,251.57
2022-10-26T18:42:42.643Z,239.60
2022-10-26T18:45:11.069Z,304.73
2022-10-26T18:47:38.874Z,306.00
2022-10-26T18:50:08.799Z,291.90
2022-10-26T18:52:36.583Z,315.90
2022-10-26T18:55:05.779Z,317.20
2022-10-26T18:57:33.574Z,285.77
2022-10-26T19:00:01.301Z,268.87
2022-10-26T19:02:29.309Z,271.23
2022-10-26T19:04:58.779Z,293.57
2022-10-26T19:07:27.942Z,332.70
2022-10-26T19:09:55.721Z,316.23
2022-10-26T19:12:23.455Z,316.53
2022-10-26T19:14:51.558Z,307.93
2022-10-26T19:17:19.277Z,315.07
2022-10-26T19:19:47.116Z,302.87
2022-10-26T19:22:14.896Z,318.73
2022-10-26T19:24:47.408Z,336.37
2022-10-26T19:27:15.137Z,381.57
2022-10-26T19:29:42.875Z,446.33
2022-10-26T19:32:10.672Z,489.90
2022-10-26T19:34:38.459Z,489.33
2022-10-26T19:37:06.389Z,455.90
2022-10-26T19:39:34.139Z,381.50
2022-10-26T19:42:03.235Z,307.53
2022-10-26T19:44:31.058Z,239.90
2022-10-26T19:46:58.878Z,243.57
2022-10-26T19:49:26.835Z,298.03
2022-10-26T19:51:57.840Z,373.37
2022-10-26T19:54:25.606Z,359.23
2022-10-26T19:56:53.331Z,339.17
2022-10-26T19:59:22.416Z,340.17
2022-10-26T20:01:50.439Z,295.60
2022-10-26T20:04:18.239Z,330.73
2022-10-26T20:06:46.011Z,345.23
2022-10-26T20:09:13.891Z,432.13
2022-10-26T20:11:43.010Z,470.90
2022-10-26T20:14:13.642Z,605.00
2022-10-26T20:16:43.389Z,776.97
2022-10-26T20:19:11.220Z,731.27
2022-10-26T20:21:39.059Z,781.67
2022-10-26T20:24:10.076Z,504.00
2022-10-26T20:26:38.410Z,569.33
2022-10-26T20:29:06.533Z,888.73
2022-10-26T20:31:34.275Z,374.83
2022-10-26T20:34:03.631Z,335.50
2022-10-26T20:36:31.388Z,346.27
2022-10-26T20:38:59.716Z,407.17
2022-10-26T20:41:28.045Z,396.03
2022-10-26T20:43:58.056Z,363.57
2022-10-26T20:46:28.228Z,431.43
2022-10-26T20:48:56.512Z,778.63
2022-10-26T20:51:40.009Z,465.73
2022-10-26T20:54:18.466Z,441.13
2022-10-26T20:56:46.945Z,401.33
2022-10-26T20:59:23.203Z,352.93
2022-10-26T21:01:51.144Z,376.10
2022-10-26T21:04:18.924Z,300.03
2022-10-26T21:06:48.065Z,366.53
2022-10-26T21:09:15.823Z,604.47
2022-10-26T21:11:45.382Z,524.43
2022-10-26T21:14:13.207Z,759.83
2022-10-26T21:16:41.192Z,791.90
2022-10-26T21:19:08.964Z,808.33
2022-10-26T21:21:36.701Z,848.30
2022-10-26T21:24:06.298Z,818.30
2022-10-26T21:26:34.025Z,760.73
2022-10-26T21:29:01.991Z,456.63
2022-10-26T21:31:29.777Z,372.03
2022-10-26T21:33:57.543Z,354.63
2022-10-26T21:36:25.329Z,356.00
2022-10-26T21:38:53.065Z,410.27
2022-10-26T21:44:03.543Z,916.50
2022-10-26T21:46:38.169Z,956.97
2022-10-26T21:49:05.940Z,704.17
2022-10-26T21:51:34.898Z,543.37
2022-10-26T21:54:02.804Z,480.47
2022-10-26T21:56:31.952Z,417.20
2022-10-26T21:59:01.117Z,445.90
2022-10-26T22:01:28.987Z,471.93
2022-10-26T22:03:56.852Z,610.80
2022-10-26T22:06:25.221Z,649.23
2022-10-26T22:08:53.365Z,753.37
2022-10-26T22:11:22.488Z,778.97
2022-10-26T22:13:52.802Z,688.47
2022-10-26T22:16:22.282Z,611.70
2022-10-26T22:18:52.231Z,604.63
2022-10-26T22:21:21.779Z,619.57
2022-10-26T22:23:49.642Z,572.60
2022-10-26T22:26:19.856Z,574.20
2022-10-26T22:28:49.056Z,516.57
2022-10-26T22:31:20.703Z,494.03
2022-10-26T22:33:52.615Z,474.50
2022-10-26T22:36:20.820Z,486.27
2022-10-26T22:38:49.751Z,457.83
2022-10-26T22:41:18.606Z,393.63
2022-10-26T22:43:46.721Z,254.07
2022-10-26T22:46:16.193Z,202.87
2022-10-26T22:48:45.489Z,203.37
2022-10-26T22:51:15.335Z,269.97
2022-10-26T22:53:43.727Z,332.03
2022-10-26T22:56:13.667Z,472.53
2022-10-26T22:58:42.038Z,495.83
2022-10-26T23:01:11.532Z,516.77
2022-10-26T23:03:39.816Z,499.43
2022-10-26T23:06:10.441Z,426.83
2022-10-26T23:08:38.351Z,427.90
2022-10-26T23:11:10.235Z,389.80
2022-10-26T23:13:38.098Z,400.57
2022-10-26T23:16:06.724Z,407.83
2022-10-26T23:18:35.133Z,392.67
2022-10-26T23:21:03.774Z,394.37
2022-10-26T23:23:33.432Z,416.87
2022-10-26T23:26:01.907Z,460.57
2022-10-26T23:28:30.055Z,468.80
2022-10-26T23:30:58.215Z,501.90
2022-10-26T23:33:26.091Z,597.43
2022-10-26T23:35:54.211Z,579.87
2022-10-26T23:38:22.053Z,444.47
2022-10-26T23:40:53.159Z,403.90
2022-10-26T23:43:21.824Z,398.40
2022-10-26T23:45:50.666Z,422.10
2022-10-26T23:48:19.294Z,427.40
2022-10-26T23:50:48.915Z,439.93
2022-10-26T23:53:18.746Z,501.93
2022-10-26T23:55:47.827Z,741.87
2022-10-26T23:58:18.345Z,1083.47
